Time;durP1;ratioP1;P1;durP2;ratioP2;P2;SDS_P1;SDS_P2;PMS_P1;PMS_P2;Temp;Humidity;BMP_temperature;BMP_pressure;BME280_temperature;BME280_humidity;BME280_pressure;Samples;Min_cycle;Max_cycle;Signal;HPM_P1;HPM_P2
2023/09/17 00:01:11;;;;;;;5.22;3.90;;;23.80;61.30;;;;;;5036341;28;20204;-81
2023/09/17 00:03:38;;;;;;;4.15;3.75;;;23.80;61.60;;;;;;5036617;28;20251;-81
2023/09/17 00:06:06;;;;;;;4.20;3.85;;;23.80;61.50;;;;;;5037270;28;20192;-81
2023/09/17 00:08:33;;;;;;;4.55;3.33;;;23.80;61.30;;;;;;5035090;28;20200;-81
2023/09/17 00:10:59;;;;;;;4.50;4.10;;;23.80;61.20;;;;;;5020472;28;20230;-81
2023/09/17 00:13:26;;;;;;;4.53;4.13;;;23.70;61.00;;;;;;5019732;28;20259;-81
2023/09/17 00:15:53;;;;;;;4.10;3.70;;;23.80;61.10;;;;;;5036614;28;20227;-81
2023/09/17 00:18:21;;;;;;;4.15;3.75;;;23.80;61.30;;;;;;5036665;28;20200;-81
2023/09/17 00:20:48;;;;;;;4.03;3.40;;;23.80;61.30;;;;;;5035703;28;20220;-81
2023/09/17 00:23:16;;;;;;;4.10;3.80;;;23.80;61.30;;;;;;5035941;28;20198;-81
2023/09/17 00:25:42;;;;;;;4.05;3.60;;;23.70;61.10;;;;;;5036009;28;20199;-81
2023/09/17 00:28:10;;;;;;;4.32;3.72;;;23.70;61.10;;;;;;5035907;28;20200;-81
2023/09/17 00:30:37;;;;;;;4.25;3.85;;;23.70;61.10;;;;;;5036212;28;20220;-81
2023/09/17 00:33:05;;;;;;;4.22;3.80;;;23.70;61.20;;;;;;5035240;28;20315;-81
2023/09/17 00:35:33;;;;;;;3.90;3.60;;;23.70;61.20;;;;;;5035628;28;20624;-81
2023/09/17 00:38:00;;;;;;;3.83;3.53;;;23.70;61.00;;;;;;5036006;28;20585;-81
2023/09/17 00:40:29;;;;;;;5.07;3.90;;;23.70;61.00;;;;;;5035740;28;20212;-81
2023/09/17 00:42:56;;;;;;;4.43;3.75;;;23.70;61.30;;;;;;5035157;28;20202;-81
2023/09/17 00:45:23;;;;;;;4.97;3.83;;;23.70;61.10;;;;;;5033829;28;20250;-81
2023/09/17 00:47:50;;;;;;;4.03;3.63;;;23.70;61.00;;;;;;5034126;28;20250;-81
2023/09/17 00:50:18;;;;;;;3.95;3.65;;;23.60;60.40;;;;;;5034004;28;20220;-81
2023/09/17 00:52:46;;;;;;;4.25;3.83;;;23.70;60.80;;;;;;4998107;28;20695;-81
2023/09/17 00:55:14;;;;;;;5.30;3.60;;;23.60;60.70;;;;;;5014442;28;20255;-81
2023/09/17 00:57:40;;;;;;;4.05;3.65;;;23.60;60.50;;;;;;5014544;28;20339;-81
2023/09/17 01:00:09;;;;;;;3.85;3.50;;;23.60;60.50;;;;;;5014181;28;20235;-80
2023/09/17 01:02:36;;;;;;;3.97;3.65;;;23.50;60.70;;;;;;5014121;28;20564;-80
2023/09/17 01:05:04;;;;;;;4.25;3.92;;;23.60;60.70;;;;;;5013977;28;20283;-80
2023/09/17 01:07:31;;;;;;;3.95;3.55;;;23.50;60.70;;;;;;5008029;28;20221;-80
2023/09/17 01:10:00;;;;;;;3.97;3.67;;;23.50;60.60;;;;;;5013531;28;20223;-80
2023/09/17 01:12:27;;;;;;;3.65;3.35;;;23.50;60.50;;;;;;5013663;28;20262;-80
2023/09/17 01:14:55;;;;;;;4.10;3.70;;;23.40;60.30;;;;;;5013474;28;20243;-80
2023/09/17 01:17:27;;;;;;;3.75;3.45;;;23.40;60.40;;;;;;5013250;28;20239;-80
2023/09/17 01:19:54;;;;;;;3.80;3.50;;;23.40;60.50;;;;;;5015769;28;20221;-80
2023/09/17 01:22:26;;;;;;;4.47;3.60;;;23.40;60.30;;;;;;5014760;28;20193;-80
2023/09/17 01:25:05;;;;;;;3.83;3.53;;;23.40;60.40;;;;;;5014720;28;20647;-80
2023/09/17 01:27:33;;;;;;;4.40;4.00;;;23.40;60.40;;;;;;5015521;28;20200;-80
2023/09/17 01:30:03;;;;;;;3.92;3.63;;;23.30;60.20;;;;;;5014915;28;20220;-80
2023/09/17 01:32:30;;;;;;;4.03;3.72;;;23.30;60.30;;;;;;5015672;28;20201;-80
2023/09/17 01:34:57;;;;;;;3.65;3.35;;;23.30;60.40;;;;;;5015127;28;20197;-80
2023/09/17 01:37:27;;;;;;;4.13;3.47;;;23.30;60.50;;;;;;5015278;28;20200;-80
2023/09/17 01:39:57;;;;;;;3.95;3.50;;;23.30;60.40;;;;;;5013840;28;20217;-80
2023/09/17 01:42:24;;;;;;;4.55;3.70;;;23.30;60.50;;;;;;5013151;28;20267;-80
2023/09/17 01:45:16;;;;;;;4.30;3.90;;;23.30;60.70;;;;;;5013774;28;20312;-80
2023/09/17 01:47:45;;;;;;;3.80;3.50;;;23.20;60.60;;;;;;5013240;28;20610;-80
2023/09/17 01:50:12;;;;;;;4.00;3.67;;;23.20;60.70;;;;;;5014175;28;20660;-80
2023/09/17 01:52:40;;;;;;;4.28;3.80;;;23.20;60.60;;;;;;5014319;28;20254;-80
2023/09/17 01:55:08;;;;;;;5.00;3.92;;;23.20;60.60;;;;;;5014315;28;20200;-80
2023/09/17 01:57:35;;;;;;;4.15;3.75;;;23.20;60.50;;;;;;5013915;28;20263;-80
2023/09/17 02:00:14;;;;;;;4.05;3.70;;;23.10;60.70;;;;;;5013909;28;20213;-80
2023/09/17 02:02:46;;;;;;;4.57;3.85;;;23.10;60.70;;;;;;5014148;28;20251;-80
2023/09/17 02:05:16;;;;;;;4.20;3.90;;;23.10;60.70;;;;;;5014055;28;20571;-80
2023/09/17 02:07:43;;;;;;;4.45;4.05;;;23.10;60.70;;;;;;5010539;28;20244;-80
2023/09/17 02:10:10;;;;;;;4.47;4.03;;;23.10;60.60;;;;;;5014303;28;20241;-80
2023/09/17 02:12:38;;;;;;;4.20;3.90;;;23.10;60.40;;;;;;5015302;28;20223;-80
2023/09/17 02:15:06;;;;;;;4.13;3.83;;;23.10;60.40;;;;;;5022294;28;20246;-80
2023/09/17 02:17:33;;;;;;;4.53;4.13;;;23.10;60.30;;;;;;5013054;28;20617;-80
2023/09/17 02:20:02;;;;;;;5.38;4.20;;;23.10;60.40;;;;;;5012684;28;20231;-80
2023/09/17 02:22:29;;;;;;;4.40;4.00;;;23.10;61.30;;;;;;5012853;28;20255;-80
2023/09/17 02:24:55;;;;;;;4.40;4.00;;;23.10;60.50;;;;;;5012870;28;20200;-80
2023/09/17 02:27:23;;;;;;;4.60;4.20;;;23.10;60.60;;;;;;5013072;28;20656;-80
2023/09/17 02:29:49;;;;;;;4.22;3.92;;;23.10;60.50;;;;;;5013790;28;20271;-80
2023/09/17 02:32:17;;;;;;;4.60;4.20;;;23.00;60.50;;;;;;5013328;28;20575;-80
2023/09/17 02:34:44;;;;;;;4.50;4.10;;;23.00;60.50;;;;;;4997538;28;20213;-80
2023/09/17 02:37:12;;;;;;;4.18;3.88;;;23.00;60.40;;;;;;5013747;28;20193;-80
2023/09/17 02:39:39;;;;;;;4.63;4.22;;;23.00;60.40;;;;;;5012453;28;20274;-80
2023/09/17 02:42:08;;;;;;;4.22;3.80;;;23.00;60.40;;;;;;5012735;28;20201;-80
2023/09/17 02:44:34;;;;;;;4.10;3.80;;;23.00;60.50;;;;;;5015737;28;20200;-80
2023/09/17 02:47:02;;;;;;;4.47;4.07;;;23.00;60.50;;;;;;5016792;28;20279;-80
2023/09/17 02:49:29;;;;;;;4.45;4.05;;;23.00;60.70;;;;;;5000486;28;20237;-80
2023/09/17 02:51:56;;;;;;;4.35;3.95;;;23.00;60.60;;;;;;5017175;28;20267;-80
2023/09/17 02:54:24;;;;;;;4.22;3.83;;;23.00;60.40;;;;;;5000654;28;20216;-80
2023/09/17 02:56:52;;;;;;;4.45;4.05;;;23.00;60.60;;;;;;5000347;28;20284;-80
2023/09/17 02:59:19;;;;;;;4.68;3.85;;;23.00;60.70;;;;;;4983246;28;20310;-80
2023/09/17 03:01:46;;;;;;;4.43;4.07;;;23.00;60.70;;;;;;5015777;28;20205;-80
2023/09/17 03:04:14;;;;;;;4.53;4.13;;;22.90;60.50;;;;;;5017025;28;20591;-80
2023/09/17 03:06:40;;;;;;;4.18;3.88;;;23.00;60.60;;;;;;5015547;28;20203;-80
2023/09/17 03:09:10;;;;;;;4.38;3.92;;;22.90;60.40;;;;;;5011678;28;20275;-80
2023/09/17 03:11:39;;;;;;;4.45;4.05;;;23.00;60.70;;;;;;5015328;28;20201;-80
2023/09/17 03:14:06;;;;;;;4.63;4.22;;;22.90;60.70;;;;;;5015628;28;20743;-80
2023/09/17 03:16:34;;;;;;;4.93;4.10;;;22.90;60.80;;;;;;5015421;28;20199;-80
2023/09/17 03:19:01;;;;;;;4.40;4.07;;;23.00;60.80;;;;;;5015265;28;20193;-80
2023/09/17 03:21:27;;;;;;;4.78;4.22;;;22.90;60.80;;;;;;5015955;28;20201;-80
2023/09/17 03:23:54;;;;;;;4.50;4.10;;;22.90;60.70;;;;;;5015845;28;20197;-80
2023/09/17 03:26:22;;;;;;;4.30;4.00;;;23.00;60.80;;;;;;5015087;28;20204;-80
2023/09/17 03:28:50;;;;;;;4.22;3.83;;;23.00;60.70;;;;;;5015101;28;20193;-80
2023/09/17 03:31:18;;;;;;;4.35;3.95;;;23.00;60.60;;;;;;5015079;28;20197;-80
2023/09/17 03:33:46;;;;;;;4.78;4.07;;;23.10;60.70;;;;;;5015553;28;20601;-80
2023/09/17 03:36:13;;;;;;;4.47;4.07;;;23.00;60.30;;;;;;5014879;28;20197;-80
2023/09/17 03:38:41;;;;;;;4.70;4.20;;;23.10;60.30;;;;;;5015534;28;20200;-80
2023/09/17 03:41:08;;;;;;;5.05;4.28;;;23.10;60.10;;;;;;5014985;28;20205;-80
2023/09/17 03:43:35;;;;;;;4.38;3.97;;;23.10;60.10;;;;;;5014823;28;20195;-80
2023/09/17 03:46:04;;;;;;;4.57;4.18;;;23.10;59.90;;;;;;5014804;28;20651;-80
2023/09/17 03:48:32;;;;;;;4.70;4.30;;;23.20;60.00;;;;;;5014667;28;20207;-80
2023/09/17 03:50:59;;;;;;;4.43;4.03;;;23.10;59.90;;;;;;5014723;28;20248;-80
2023/09/17 03:53:26;;;;;;;4.43;4.03;;;23.10;59.90;;;;;;5014714;28;20586;-80
2023/09/17 03:55:53;;;;;;;5.32;4.00;;;23.10;59.90;;;;;;5013606;28;20259;-80
2023/09/17 03:58:21;;;;;;;4.88;4.40;;;23.10;59.80;;;;;;5014764;28;20651;-80
2023/09/17 04:00:48;;;;;;;4.97;4.50;;;23.10;59.80;;;;;;5014876;28;20224;-80
2023/09/17 04:03:19;;;;;;;4.70;4.30;;;23.10;59.80;;;;;;5014679;28;20614;-80
2023/09/17 04:05:48;;;;;;;4.53;4.07;;;23.10;59.80;;;;;;5014552;28;20208;-80
2023/09/17 04:08:15;;;;;;;5.22;4.55;;;23.10;59.80;;;;;;4994716;28;20193;-80
2023/09/17 04:10:42;;;;;;;4.63;4.22;;;23.10;59.80;;;;;;5014254;28;20228;-80
2023/09/17 04:13:09;;;;;;;4.60;4.20;;;23.10;59.90;;;;;;5084447;23;20231;-86
2023/09/17 04:15:36;;;;;;;4.82;4.05;;;23.10;59.70;;;;;;5054152;28;20199;-87
2023/09/17 04:18:05;;;;;;;4.43;4.13;;;23.10;59.80;;;;;;5055427;28;20248;-86
2023/09/17 04:20:35;;;;;;;4.38;4.00;;;23.10;59.70;;;;;;5039345;28;20303;-87
2023/09/17 04:23:03;;;;;;;4.80;4.32;;;23.10;59.80;;;;;;5034729;28;20253;-87
2023/09/17 04:25:32;;;;;;;4.82;4.35;;;23.00;59.80;;;;;;5034506;28;20264;-87
2023/09/17 04:27:59;;;;;;;4.60;4.20;;;23.00;59.80;;;;;;5033991;28;20196;-87
2023/09/17 04:30:26;;;;;;;4.68;4.15;;;23.00;59.80;;;;;;5034644;28;20561;-87
2023/09/17 04:32:54;;;;;;;4.78;4.30;;;23.00;59.80;;;;;;5036201;28;20189;-87
2023/09/17 04:35:22;;;;;;;4.88;4.38;;;23.00;59.80;;;;;;5035196;28;20216;-87
2023/09/17 04:37:51;;;;;;;4.78;4.38;;;23.00;59.80;;;;;;5035258;28;20196;-87
2023/09/17 04:40:28;;;;;;;4.65;4.25;;;22.90;59.80;;;;;;5034866;28;20218;-87
2023/09/17 04:42:57;;;;;;;4.40;4.00;;;23.00;60.70;;;;;;5035104;28;20207;-87
2023/09/17 04:45:34;;;;;;;4.20;3.90;;;22.90;59.80;;;;;;5034987;28;20211;-87
2023/09/17 04:48:04;;;;;;;5.57;4.30;;;23.00;60.00;;;;;;5035150;28;20189;-87
2023/09/17 04:50:33;;;;;;;4.75;4.28;;;23.00;59.90;;;;;;5035115;28;20303;-87
2023/09/17 04:53:02;;;;;;;4.35;3.95;;;22.90;59.90;;;;;;5034591;28;20662;-87
2023/09/17 04:55:29;;;;;;;4.40;4.10;;;22.90;59.90;;;;;;5033827;28;20226;-87
2023/09/17 04:57:56;;;;;;;4.50;4.00;;;23.00;59.90;;;;;;5033530;28;20684;-87
2023/09/17 05:00:23;;;;;;;5.10;4.60;;;22.90;59.90;;;;;;5034096;28;20246;-87
2023/09/17 05:02:50;;;;;;;4.28;3.88;;;22.90;60.00;;;;;;5017956;28;20196;-87
2023/09/17 05:05:18;;;;;;;4.38;4.07;;;22.90;60.00;;;;;;5034384;28;20192;-87
2023/09/17 05:07:47;;;;;;;4.30;3.90;;;22.90;59.90;;;;;;5034031;28;20207;-87
2023/09/17 05:10:17;;;;;;;4.70;4.30;;;22.90;59.90;;;;;;5033672;28;20216;-87
2023/09/17 05:12:44;;;;;;;4.40;4.00;;;22.90;59.90;;;;;;5030243;28;20232;-87
2023/09/17 05:15:11;;;;;;;4.18;3.88;;;22.80;59.80;;;;;;5032890;28;20282;-87
2023/09/17 05:17:39;;;;;;;4.50;4.10;;;22.90;59.90;;;;;;5033365;28;20202;-87
2023/09/17 05:20:07;;;;;;;4.65;4.25;;;22.90;59.90;;;;;;5032733;28;20741;-86
2023/09/17 05:22:35;;;;;;;4.97;4.03;;;22.90;60.00;;;;;;5016675;28;20220;-86
2023/09/17 05:25:03;;;;;;;5.53;4.60;;;22.90;60.30;;;;;;5032794;28;20195;-86
2023/09/17 05:27:32;;;;;;;4.78;4.30;;;22.90;60.10;;;;;;5033418;28;20196;-87
2023/09/17 05:30:00;;;;;;;4.32;3.92;;;22.80;60.00;;;;;;5033039;28;20314;-87
2023/09/17 05:32:27;;;;;;;4.68;4.28;;;22.90;60.30;;;;;;5033324;28;20196;-87
2023/09/17 05:34:57;;;;;;;4.45;4.13;;;22.80;60.10;;;;;;5032495;28;20211;-87
2023/09/17 05:37:24;;;;;;;6.53;4.20;;;22.80;60.20;;;;;;5033038;28;20208;-87
2023/09/17 05:39:51;;;;;;;4.05;3.75;;;22.80;60.20;;;;;;5032522;28;20216;-87
2023/09/17 05:42:18;;;;;;;4.20;3.90;;;22.80;60.30;;;;;;5032847;28;20211;-87
2023/09/17 05:44:47;;;;;;;4.30;4.00;;;22.80;60.30;;;;;;5032752;28;20279;-87
2023/09/17 05:47:16;;;;;;;4.57;4.28;;;22.90;60.30;;;;;;5033796;28;20206;-87
2023/09/17 05:49:43;;;;;;;4.40;4.00;;;22.90;60.40;;;;;;5033524;28;20216;-87
2023/09/17 05:52:10;;;;;;;4.82;4.43;;;22.90;60.30;;;;;;5035115;28;20546;-87
2023/09/17 05:54:38;;;;;;;4.43;4.07;;;22.80;60.20;;;;;;5033372;28;20342;-87
2023/09/17 05:57:05;;;;;;;4.72;4.28;;;22.80;60.30;;;;;;5032561;28;20769;-87
2023/09/17 05:59:32;;;;;;;4.30;4.00;;;22.80;60.30;;;;;;5036752;28;20406;-87
2023/09/17 06:02:00;;;;;;;4.70;4.30;;;22.90;60.40;;;;;;5032688;28;20204;-87
2023/09/17 06:04:28;;;;;;;4.50;4.15;;;22.80;60.30;;;;;;5032451;28;20716;-87
2023/09/17 06:06:55;;;;;;;4.57;4.00;;;22.90;60.40;;;;;;5016433;28;20196;-87
2023/09/17 06:09:23;;;;;;;4.38;4.07;;;22.90;60.40;;;;;;5033216;28;20216;-87
2023/09/17 06:11:49;;;;;;;4.60;4.20;;;22.90;60.30;;;;;;5012011;28;20242;-87
2023/09/17 06:14:17;;;;;;;4.40;4.00;;;22.90;60.40;;;;;;5032658;28;20616;-87
2023/09/17 06:16:43;;;;;;;4.75;4.35;;;22.90;60.40;;;;;;5016952;28;20196;-87
2023/09/17 06:19:12;;;;;;;4.53;4.13;;;22.90;60.30;;;;;;5034607;28;20224;-87
2023/09/17 06:21:39;;;;;;;4.60;4.20;;;22.90;61.20;;;;;;5036317;28;20318;-87
2023/09/17 06:24:06;;;;;;;4.28;3.97;;;23.00;60.40;;;;;;5036198;28;20196;-87
2023/09/17 06:26:33;;;;;;;4.80;4.40;;;23.00;60.50;;;;;;5036487;28;20195;-86
2023/09/17 06:29:00;;;;;;;4.45;4.15;;;23.00;60.50;;;;;;5036593;28;20200;-86
2023/09/17 06:31:28;;;;;;;4.75;4.30;;;23.00;60.50;;;;;;5009165;28;20207;-86
2023/09/17 06:33:55;;;;;;;4.45;4.15;;;23.00;60.50;;;;;;5026493;28;20632;-86
2023/09/17 06:36:24;;;;;;;4.93;4.53;;;23.00;60.50;;;;;;5036219;28;20192;-86
2023/09/17 06:38:51;;;;;;;4.65;4.22;;;23.00;60.50;;;;;;5036759;28;20211;-86
2023/09/17 06:41:18;;;;;;;4.40;4.00;;;23.10;60.40;;;;;;5036021;28;20203;-86
2023/09/17 06:43:46;;;;;;;4.70;4.30;;;23.00;60.30;;;;;;5036314;28;20196;-86
2023/09/17 06:46:13;;;;;;;4.18;3.88;;;23.10;60.30;;;;;;5035959;28;20707;-87
2023/09/17 06:48:41;;;;;;;4.68;4.28;;;23.10;60.30;;;;;;5035749;28;20207;-86
2023/09/17 06:51:08;;;;;;;5.25;4.38;;;23.20;60.20;;;;;;5035803;28;20654;-86
2023/09/17 06:53:36;;;;;;;4.60;4.30;;;23.20;60.20;;;;;;5035781;28;20200;-86
2023/09/17 06:56:03;;;;;;;4.68;4.28;;;23.30;60.10;;;;;;5035678;28;20216;-86
2023/09/17 06:58:30;;;;;;;4.78;4.38;;;23.30;60.00;;;;;;5035668;28;20227;-86
2023/09/17 07:00:57;;;;;;;5.32;4.82;;;23.30;60.00;;;;;;5035728;28;20709;-87
2023/09/17 07:03:24;;;;;;;4.97;4.57;;;23.50;60.00;;;;;;5035683;28;20200;-86
2023/09/17 07:05:51;;;;;;;4.95;4.50;;;23.60;59.60;;;;;;5035606;28;20614;-86
2023/09/17 07:08:18;;;;;;;4.93;4.47;;;23.80;59.40;;;;;;5037165;28;20203;-86
2023/09/17 07:10:46;;;;;;;4.43;4.13;;;23.90;59.00;;;;;;5019675;28;20228;-86
2023/09/17 07:13:13;;;;;;;4.95;4.55;;;24.00;58.60;;;;;;5035666;28;20200;-86
2023/09/17 07:15:40;;;;;;;4.63;4.22;;;24.10;58.20;;;;;;5035489;28;20216;-86
2023/09/17 07:18:08;;;;;;;5.00;4.53;;;24.30;58.00;;;;;;5035196;28;20207;-86
2023/09/17 07:20:35;;;;;;;4.75;4.35;;;24.30;57.90;;;;;;5035279;28;20224;-86
2023/09/17 07:23:02;;;;;;;4.70;4.30;;;24.30;57.90;;;;;;5039109;28;20226;-86
2023/09/17 07:25:29;;;;;;;4.05;3.75;;;24.30;57.90;;;;;;5044831;28;20200;-87
2023/09/17 07:28:04;;;;;;;5.35;4.47;;;24.30;57.90;;;;;;5047041;28;20532;-87
2023/09/17 07:30:33;;;;;;;4.45;3.95;;;24.30;57.90;;;;;;5044500;28;20693;-85
2023/09/17 07:33:00;;;;;;;5.03;4.63;;;24.30;58.00;;;;;;5040667;28;20283;-85
2023/09/17 07:35:27;;;;;;;4.43;4.03;;;24.30;58.00;;;;;;5044095;28;20219;-84
2023/09/17 07:37:54;;;;;;;4.50;4.10;;;24.30;58.00;;;;;;5036808;28;20200;-85
2023/09/17 07:40:21;;;;;;;4.47;4.07;;;24.20;58.10;;;;;;5029893;28;20283;-86
2023/09/17 07:42:48;;;;;;;4.55;4.10;;;24.30;58.00;;;;;;5046906;28;20273;-86
2023/09/17 07:45:16;;;;;;;4.38;4.07;;;24.30;58.10;;;;;;5041832;28;20218;-85
2023/09/17 07:47:43;;;;;;;4.35;3.95;;;24.30;58.10;;;;;;5038492;28;20271;-84
2023/09/17 07:50:10;;;;;;;4.18;3.88;;;24.30;58.10;;;;;;5036217;28;20224;-84
2023/09/17 07:52:37;;;;;;;4.45;4.10;;;24.30;58.20;;;;;;5036017;28;20249;-85
2023/09/17 07:55:06;;;;;;;4.78;4.38;;;24.30;58.00;;;;;;5035747;28;20310;-84
2023/09/17 07:57:33;;;;;;;4.50;4.10;;;24.30;58.20;;;;;;5035269;28;20203;-85
2023/09/17 08:00:00;;;;;;;4.57;4.18;;;24.30;58.10;;;;;;5035432;28;20222;-85
2023/09/17 08:02:29;;;;;;;4.35;4.05;;;24.30;58.10;;;;;;5034438;28;20211;-85
2023/09/17 08:04:56;;;;;;;4.75;4.35;;;24.40;58.10;;;;;;5034210;28;20634;-85
2023/09/17 08:07:23;;;;;;;4.72;4.32;;;24.40;58.10;;;;;;5034082;28;20204;-85
2023/09/17 08:09:49;;;;;;;4.60;4.20;;;24.40;58.00;;;;;;5034738;28;20215;-85
2023/09/17 08:12:16;;;;;;;4.70;4.30;;;24.50;58.10;;;;;;5034795;28;20662;-85
2023/09/17 08:14:46;;;;;;;4.10;3.80;;;24.60;57.90;;;;;;5034743;28;20211;-85
2023/09/17 08:17:13;;;;;;;4.40;4.10;;;24.70;57.50;;;;;;5034602;28;20200;-85
2023/09/17 08:19:41;;;;;;;4.40;4.00;;;24.90;57.40;;;;;;5035151;28;20269;-85
2023/09/17 08:22:08;;;;;;;4.80;4.30;;;24.90;57.10;;;;;;5034925;28;20196;-85
2023/09/17 08:24:35;;;;;;;4.75;4.35;;;24.90;57.10;;;;;;5035739;28;20211;-85
2023/09/17 08:27:04;;;;;;;5.38;4.88;;;24.90;57.50;;;;;;5034682;28;20262;-86
2023/09/17 08:29:31;;;;;;;5.55;4.50;;;24.90;58.30;;;;;;5034545;28;20224;-87
2023/09/17 08:31:58;;;;;;;5.22;4.82;;;25.00;58.60;;;;;;5036064;28;20571;-85
2023/09/17 08:34:24;;;;;;;5.10;4.53;;;25.00;58.50;;;;;;5035256;28;20687;-85
2023/09/17 08:36:53;;;;;;;5.47;4.75;;;25.10;58.60;;;;;;5035197;28;20231;-85
2023/09/17 08:39:20;;;;;;;4.80;4.30;;;25.20;58.10;;;;;;5034563;28;20273;-86
2023/09/17 08:41:48;;;;;;;5.45;4.88;;;25.40;57.40;;;;;;5034542;28;20202;-86
2023/09/17 08:44:16;;;;;;;5.18;4.68;;;25.50;57.60;;;;;;5035520;28;20202;-86
2023/09/17 08:46:43;;;;;;;5.88;4.28;;;25.60;57.20;;;;;;5035431;28;20199;-86
2023/09/17 08:49:11;;;;;;;4.93;4.53;;;25.70;56.80;;;;;;5042207;28;20631;-86
2023/09/17 08:51:38;;;;;;;6.60;4.55;;;25.90;56.20;;;;;;5023143;28;20658;-86
2023/09/17 08:54:09;;;;;;;5.85;4.70;;;26.00;55.90;;;;;;5040107;28;20440;-86
2023/09/17 08:56:38;;;;;;;4.50;4.10;;;26.00;56.30;;;;;;5038228;28;20634;-86
2023/09/17 08:59:14;;;;;;;10.52;8.52;;;26.00;55.80;;;;;;5034654;28;20589;-87
2023/09/17 09:01:41;;;;;;;26.80;19.30;;;26.00;55.80;;;;;;5039162;28;20199;-86
2023/09/17 09:04:08;;;;;;;65.28;40.40;;;26.10;56.80;;;;;;5041091;28;20569;-86
2023/09/17 09:06:35;;;;;;;62.42;40.88;;;26.10;55.90;;;;;;5039071;28;20207;-86
2023/09/17 09:09:04;;;;;;;46.60;30.98;;;26.20;55.40;;;;;;5039642;28;20647;-86
2023/09/17 09:11:34;;;;;;;43.78;27.35;;;26.30;54.70;;;;;;5037508;28;20212;-86
2023/09/17 09:14:02;;;;;;;14.73;10.75;;;26.50;54.90;;;;;;5033646;28;20561;-86
2023/09/17 09:16:32;;;;;;;15.55;11.52;;;26.50;54.60;;;;;;5033319;28;20219;-86
2023/09/17 09:18:59;;;;;;;21.13;15.73;;;26.60;54.20;;;;;;5033548;28;20258;-86
2023/09/17 09:21:28;;;;;;;17.67;11.57;;;26.60;54.00;;;;;;5033953;28;20249;-86
2023/09/17 09:23:57;;;;;;;14.20;9.80;;;26.70;53.90;;;;;;5033534;28;20250;-86
2023/09/17 09:26:34;;;;;;;11.90;8.63;;;26.70;54.20;;;;;;5034409;28;20571;-86
2023/09/17 09:29:01;;;;;;;12.32;8.00;;;26.70;54.90;;;;;;5033334;28;20199;-86
2023/09/17 09:31:29;;;;;;;8.52;6.70;;;26.70;53.90;;;;;;5035268;28;20658;-86
2023/09/17 09:33:57;;;;;;;11.73;8.00;;;26.70;54.60;;;;;;5034579;28;20202;-86
2023/09/17 09:36:26;;;;;;;9.95;6.75;;;26.70;54.00;;;;;;5033818;28;20273;-86
2023/09/17 09:38:54;;;;;;;7.05;5.95;;;26.80;53.80;;;;;;5034160;28;20207;-86
2023/09/17 09:41:21;;;;;;;7.60;5.93;;;26.80;53.70;;;;;;5035274;28;20528;-86
2023/09/17 09:43:49;;;;;;;6.45;5.32;;;26.90;53.60;;;;;;5034785;28;20550;-86
2023/09/17 09:46:16;;;;;;;6.70;4.95;;;26.90;53.70;;;;;;5036182;28;20291;-86
2023/09/17 09:48:45;;;;;;;6.07;4.25;;;26.90;53.50;;;;;;5041673;28;20699;-86
2023/09/17 09:51:12;;;;;;;4.70;4.22;;;26.90;53.50;;;;;;5045338;28;20298;-85
2023/09/17 09:53:39;;;;;;;5.72;4.53;;;26.90;53.70;;;;;;5030161;28;20205;-86
2023/09/17 09:56:06;;;;;;;5.43;3.92;;;26.90;53.60;;;;;;5049148;28;20215;-86
2023/09/17 09:58:41;;;;;;;5.07;4.57;;;26.90;53.50;;;;;;5022682;28;20215;-88
2023/09/17 10:01:09;;;;;;;5.75;4.15;;;26.90;53.50;;;;;;5011896;28;20195;-88
2023/09/17 10:03:36;;;;;;;6.05;4.38;;;27.00;53.40;;;;;;5014149;28;20195;-88
2023/09/17 10:06:06;;;;;;;4.40;3.88;;;26.90;53.30;;;;;;5041000;28;20246;-86
2023/09/17 10:08:34;;;;;;;4.43;4.03;;;27.00;53.20;;;;;;5041472;28;20210;-87
2023/09/17 10:11:05;;;;;;;5.32;4.13;;;27.00;53.20;;;;;;5040684;28;20309;-87
2023/09/17 10:13:33;;;;;;;4.55;3.97;;;27.00;53.10;;;;;;5041410;28;20203;-87
2023/09/17 10:16:00;;;;;;;5.10;3.88;;;27.00;53.10;;;;;;5040251;28;20269;-86
2023/09/17 10:18:29;;;;;;;4.22;3.53;;;27.00;53.20;;;;;;5039510;28;20199;-87
2023/09/17 10:20:56;;;;;;;5.63;3.65;;;27.10;53.30;;;;;;5037013;28;20224;-87
2023/09/17 10:23:22;;;;;;;3.95;3.55;;;27.00;53.00;;;;;;5036863;28;20711;-87
2023/09/17 10:25:49;;;;;;;3.58;3.17;;;27.10;53.20;;;;;;5036648;28;20607;-87
2023/09/17 10:28:17;;;;;;;4.35;3.72;;;27.10;53.00;;;;;;5037641;28;20290;-87
2023/09/17 10:30:45;;;;;;;3.88;3.58;;;27.10;53.00;;;;;;5037006;28;20229;-87
2023/09/17 10:33:13;;;;;;;5.32;3.30;;;27.10;53.10;;;;;;5037491;28;20234;-87
2023/09/17 10:35:41;;;;;;;3.75;3.33;;;27.10;52.80;;;;;;5037074;28;20210;-86
2023/09/17 10:38:09;;;;;;;3.45;3.15;;;27.10;52.90;;;;;;5037520;28;20253;-86
2023/09/17 10:40:36;;;;;;;4.90;3.10;;;27.10;53.10;;;;;;5037298;28;20618;-87
2023/09/17 10:43:06;;;;;;;4.75;3.40;;;27.00;53.00;;;;;;5020894;28;20294;-87
2023/09/17 10:45:35;;;;;;;5.97;3.00;;;27.00;53.00;;;;;;5037834;28;20650;-87
2023/09/17 10:48:02;;;;;;;5.10;3.25;;;26.90;52.50;;;;;;5036924;28;20245;-87
2023/09/17 10:50:29;;;;;;;5.68;3.08;;;27.00;52.80;;;;;;5036870;28;20219;-87
2023/09/17 10:52:58;;;;;;;4.32;3.08;;;27.00;52.60;;;;;;5036324;28;20204;-87
2023/09/17 10:55:25;;;;;;;4.00;2.90;;;27.00;52.50;;;;;;5020558;28;20739;-87
2023/09/17 10:57:56;;;;;;;3.22;2.85;;;26.90;52.60;;;;;;5036191;28;20203;-87
2023/09/17 11:00:23;;;;;;;3.35;2.90;;;27.00;52.50;;;;;;5036541;28;20226;-86
2023/09/17 11:02:53;;;;;;;5.38;2.92;;;27.00;52.60;;;;;;5036187;28;20191;-87
2023/09/17 11:05:21;;;;;;;4.00;2.95;;;26.90;52.60;;;;;;5035363;28;20195;-87
2023/09/17 11:07:48;;;;;;;4.25;2.90;;;26.90;52.40;;;;;;5036351;28;20598;-87
2023/09/17 11:10:16;;;;;;;3.88;2.90;;;26.90;52.70;;;;;;5035373;28;20219;-87
2023/09/17 11:12:43;;;;;;;6.53;2.80;;;26.90;52.70;;;;;;5036643;28;20195;-87
2023/09/17 11:15:11;;;;;;;4.68;3.10;;;26.90;52.90;;;;;;5036398;28;20195;-87
2023/09/17 11:17:38;;;;;;;3.58;2.80;;;26.90;52.60;;;;;;5035425;28;20234;-87
2023/09/17 11:20:12;;;;;;;4.07;2.70;;;26.90;52.70;;;;;;5035812;28;20246;-87
2023/09/17 11:22:39;;;;;;;3.60;2.50;;;26.90;52.60;;;;;;5036470;28;20194;-87
2023/09/17 11:25:08;;;;;;;5.35;3.20;;;26.90;52.70;;;;;;5036292;28;20285;-86
2023/09/17 11:27:48;;;;;;;5.25;2.83;;;26.80;52.40;;;;;;5019442;28;20199;-87
2023/09/17 11:30:18;;;;;;;8.25;3.15;;;26.80;52.20;;;;;;5035526;28;20223;-87
2023/09/17 11:32:52;;;;;;;4.43;2.80;;;26.80;51.90;;;;;;5035493;28;20222;-87
2023/09/17 11:35:20;;;;;;;3.63;2.50;;;26.90;52.20;;;;;;5035424;28;20688;-87
2023/09/17 11:37:48;;;;;;;5.75;2.72;;;26.80;52.10;;;;;;5036023;28;20246;-87
2023/09/17 11:40:15;;;;;;;5.22;2.50;;;26.80;52.10;;;;;;5036173;28;20222;-87
2023/09/17 11:42:42;;;;;;;4.40;2.70;;;26.80;52.20;;;;;;5035248;28;20195;-87
2023/09/17 11:45:11;;;;;;;4.78;2.47;;;26.80;51.90;;;;;;5035976;28;20207;-87
2023/09/17 11:47:38;;;;;;;3.35;2.50;;;26.80;51.80;;;;;;5035061;28;20196;-87
2023/09/17 11:50:07;;;;;;;6.75;2.40;;;26.70;52.00;;;;;;5018110;28;20223;-87
2023/09/17 11:52:34;;;;;;;4.35;2.65;;;26.80;51.80;;;;;;5034637;28;20230;-87
2023/09/17 11:55:07;;;;;;;3.55;2.22;;;26.80;51.90;;;;;;5035288;28;20199;-87
2023/09/17 11:57:35;;;;;;;5.78;2.45;;;26.80;51.70;;;;;;5019303;28;20219;-87
2023/09/17 12:00:09;;;;;;;4.38;2.63;;;26.80;51.90;;;;;;5018235;28;20219;-87
2023/09/17 12:02:39;;;;;;;5.30;2.45;;;26.80;51.60;;;;;;5036533;28;20593;-87
2023/09/17 12:05:07;;;;;;;3.78;2.40;;;26.80;51.50;;;;;;5034654;28;20214;-87
2023/09/17 12:07:34;;;;;;;5.28;2.50;;;26.70;51.70;;;;;;5034037;28;20198;-87
2023/09/17 12:10:05;;;;;;;4.80;2.70;;;26.70;51.10;;;;;;5034307;28;20216;-87
2023/09/17 12:12:33;;;;;;;4.07;2.50;;;26.70;51.40;;;;;;5034527;28;20203;-87
2023/09/17 12:15:00;;;;;;;4.28;2.65;;;26.70;51.50;;;;;;5034056;28;20256;-87
2023/09/17 12:17:27;;;;;;;4.53;2.35;;;26.70;51.40;;;;;;5017440;28;20242;-87
2023/09/17 12:20:10;;;;;;;2.80;2.50;;;26.70;51.50;;;;;;5035083;28;20226;-87
2023/09/17 12:22:38;;;;;;;3.13;2.58;;;26.70;51.50;;;;;;5034288;28;20196;-87
2023/09/17 12:25:13;;;;;;;3.17;2.50;;;26.70;51.40;;;;;;5034516;28;20269;-87
2023/09/17 12:27:46;;;;;;;4.88;2.47;;;26.70;51.40;;;;;;5034878;28;20212;-87
2023/09/17 12:30:14;;;;;;;5.40;2.30;;;26.60;51.50;;;;;;5034096;28;20219;-87
2023/09/17 12:32:41;;;;;;;5.18;3.03;;;26.60;51.40;;;;;;5034452;28;20726;-87
2023/09/17 12:35:10;;;;;;;6.03;2.55;;;26.70;51.60;;;;;;5034422;28;20196;-87
2023/09/17 12:37:37;;;;;;;4.97;2.28;;;26.70;51.40;;;;;;5033902;28;20223;-87
2023/09/17 12:40:08;;;;;;;4.63;2.78;;;26.70;51.50;;;;;;5033977;28;20242;-87
2023/09/17 12:42:35;;;;;;;4.65;2.53;;;26.80;51.30;;;;;;5017407;28;20400;-87
2023/09/17 12:45:03;;;;;;;4.28;2.75;;;26.80;51.30;;;;;;5033726;28;20197;-87
2023/09/17 12:47:29;;;;;;;4.55;2.70;;;26.80;51.30;;;;;;5034029;28;20199;-87
2023/09/17 12:49:58;;;;;;;5.28;2.47;;;26.80;51.30;;;;;;5033667;28;20697;-87